Buoy 46562

sailwx.info

Track history (hours):
 
Tides and Currents Weather Stations Pressure Air Temp Water Temp Dewpoint Dewpoint Depression Visibility Wind Speed Wind Dir Waves Ship Positions

Drifting buoy 46562

Last reported at 2016-Mar-26 01:00 UTC. Time now 2016-May-28 22:04 UTC.
Position N 50°09' W 127°54'.
Warning: this ship's position is months out of date.

Water temperature 7.9 ° C

Date/timePositionNaut miles runAvg speedWind from/ knotsBaromVisibWave heightAir tempDewpointWater temp
2016-Mar-26 01:00N 50°09' W 127°54'0 0.0 7.9
2016-Mar-25 12:00N 50°09' W 127°54'0 0.0 8.5
2016-Mar-25 03:00N 50°09' W 127°54'0 0.0 8.5
2016-Mar-24 14:00N 50°09' W 127°54'0 0.0 8.5
2016-Mar-24 02:00N 50°09' W 127°53'0 0.1 8.6
2016-Mar-23 20:00N 50°09' W 127°54'0 0.2 9.6
2016-Mar-23 17:00N 50°09' W 127°53'0 0.2 8.6
2016-Mar-23 16:00N 50°09' W 127°53'0 0.1 8.4
2016-Mar-23 15:00N 50°09' W 127°53'0 0.1 8.2
2016-Mar-23 14:00N 50°09' W 127°53'0 0.0 8.2
2016-Mar-23 12:00N 50°09' W 127°53'0 0.0 8.1
2016-Mar-23 04:00N 50°09' W 127°53'0 0.1 8.9
2016-Mar-23 02:00N 50°09' W 127°53'0 0.1 9.2
2016-Mar-22 23:00N 50°09' W 127°54'0 0.1 9.4
2016-Mar-22 19:00N 50°09' W 127°53'0 0.0 9.6
2016-Mar-22 17:00N 50°09' W 127°53'0 0.0 8.6
2016-Mar-22 15:00N 50°09' W 127°53'0 0.1 8.4
2016-Mar-22 14:00N 50°09' W 127°53'0 0.1 8.3
2016-Mar-22 13:00N 50°09' W 127°53'0 0.1 8.5
2016-Mar-22 12:00N 50°09' W 127°53'0 0.0 8.6
2016-Mar-22 11:00N 50°09' W 127°53'0 0.1 8.8
2016-Mar-22 10:00N 50°09' W 127°53'0 0.0 9.2
2016-Mar-22 03:00N 50°09' W 127°53'0 0.0 8.9
2016-Mar-22 01:00N 50°09' W 127°53'0 0.0 9.0
2016-Mar-21 23:00N 50°09' W 127°53'0 0.0 9.0
2016-Mar-21 19:00N 50°09' W 127°53'0 0.0 9.5
2016-Mar-21 15:00N 50°09' W 127°53'0 0.1 7.9
2016-Mar-21 14:00N 50°09' W 127°53'0 0.1 8.2
2016-Mar-21 11:00N 50°09' W 127°54'0 0.0 8.9
2016-Mar-21 05:00N 50°09' W 127°53'0 0.2 9.0
2016-Mar-21 04:00N 50°09' W 127°53'0 0.0 9.0
2016-Mar-21 03:00N 50°09' W 127°53'0 0.0 9.2
2016-Mar-21 02:00N 50°09' W 127°53'0 0.0 9.1
2016-Mar-20 23:00N 50°09' W 127°53'0 0.0 8.7
2016-Mar-20 16:00N 50°09' W 127°53'0 0.0 8.7
2016-Mar-20 14:00N 50°09' W 127°53'0 0.0 8.9
2016-Mar-20 13:00N 50°09' W 127°53'0 0.1 9.0
2016-Mar-20 12:00N 50°09' W 127°53'0 0.1 8.9
2016-Mar-20 11:00N 50°09' W 127°53'0 0.0 9.0
2016-Mar-20 10:00N 50°09' W 127°53'1 0.3 9.0
2016-Mar-20 06:00N 50°09' W 127°52'0 0.0 9.1
2016-Mar-20 05:00N 50°09' W 127°52'1 0.6 8.8
2016-Mar-20 03:00N 50°09' W 127°53'0 0.0 8.7
2016-Mar-19 23:00N 50°09' W 127°53'0 0.1 9.1
2016-Mar-19 18:00N 50°09' W 127°53'0 0.0 9.6
2016-Mar-19 16:00N 50°09' W 127°53'0 0.1 9.6
2016-Mar-19 14:00N 50°09' W 127°53'0 0.3 8.9
2016-Mar-19 13:00N 50°09' W 127°53'0 0.1 9.0
2016-Mar-19 11:00N 50°09' W 127°53'0 0.0 8.7
2016-Mar-19 10:00N 50°09' W 127°53'0 0.2 8.3
2016-Mar-19 07:00N 50°09' W 127°54'0 0.0 9.1
2016-Mar-19 05:00N 50°09' W 127°54'0 0.2 8.1
2016-Mar-19 03:00N 50°09' W 127°53'0 0.0 7.4
2016-Mar-19 00:00N 50°09' W 127°53'1 0.2 7.6
2016-Mar-18 21:00N 50°09' W 127°53'1 0.6 7.3
2016-Mar-18 20:00N 50°09' W 127°53'0 0.0 7.4
2016-Mar-18 16:00N 50°09' W 127°53'0 0.1 5.9
2016-Mar-18 14:00N 50°09' W 127°53'1 0.2 4.4
2016-Mar-18 11:00N 50°09' W 127°54'0 0.1 4.7
2016-Mar-18 05:00N 50°09' W 127°53'0 0.5 5.3
2016-Mar-18 04:00N 50°09' W 127°53'0 0.1 5.4
2016-Mar-18 02:00N 50°09' W 127°53'0 0.1 5.9
2016-Mar-17 20:00N 50°09' W 127°53'0 0.1 6.3
2016-Mar-17 17:00N 50°09' W 127°53'0 0.0 8.5
2016-Mar-17 16:00N 50°09' W 127°53'0 0.1 9.3
2016-Mar-17 14:00N 50°09' W 127°53'0 0.1 8.9
2016-Mar-17 12:00N 50°09' W 127°53'1 1.0 3.8
2016-Mar-17 11:00N 50°09' W 127°54'0 0.0 4.0
2016-Mar-17 10:00N 50°09' W 127°54'0 0.0 4.3
2016-Mar-17 06:00N 50°09' W 127°54'0 0.2 7.8
2016-Mar-17 04:00N 50°09' W 127°54'1 0.6 9.6
2016-Mar-17 03:00N 50°09' W 127°53'0 0.3 9.7
2016-Mar-17 02:00N 50°09' W 127°53'0 0.1 9.7
2016-Mar-17 01:00N 50°09' W 127°53'0 0.1 9.8
2016-Mar-17 00:00N 50°09' W 127°53'1 0.8 9.8
2016-Mar-16 23:00N 50°10' W 127°53'0 0.1 10.0
2016-Mar-16 21:00N 50°10' W 127°54'0 0.3 10.0
2016-Mar-16 20:00N 50°10' W 127°53'0 0.0 10.0
2016-Mar-16 19:00N 50°10' W 127°53'0 0.0 9.8
2016-Mar-16 18:00N 50°10' W 127°53'1 0.2 9.6
2016-Mar-16 15:00N 50°11' W 127°53'1 0.6 9.6
2016-Mar-16 14:00N 50°11' W 127°53'0 0.1 9.6
2016-Mar-16 13:00N 50°12' W 127°53'1 0.9 9.6
2016-Mar-16 12:00N 50°12' W 127°55'0 0.0 9.5
2016-Mar-16 11:00N 50°12' W 127°55'1 1.4 9.7
2016-Mar-16 10:00N 50°13' W 127°55'2 0.4 9.7
2016-Mar-16 05:00N 50°15' W 127°56'0 0.5 9.8
2016-Mar-16 04:00N 50°15' W 127°56'2 1.5 9.8
2016-Mar-16 03:00N 50°16' W 127°58'2 1.7 9.9
2016-Mar-16 02:00N 50°17' W 127°60'1 1.4 9.9
2016-Mar-16 01:00N 50°17' W 128°02'   9.9
Track history (hours):
 
Tides and Currents Weather Stations Pressure Air Temp Water Temp Dewpoint Dewpoint Depression Visibility Wind Speed Wind Dir Waves Ship Positions

Drifting buoy 46562

Last reported at 2016-Mar-26 01:00 UTC. Time now 2016-May-28 22:04 UTC.
Position N 50°09' W 127°54'.
Warning: this ship's position is months out of date.

Water temperature 7.9 ° C

Date/timePositionNaut miles runAvg speedWind from/ knotsBaromVisibWave heightAir tempDewpointWater temp
2016-Mar-26 01:00N 50°09' W 127°54'0 0.0 7.9
2016-Mar-25 12:00N 50°09' W 127°54'0 0.0 8.5
2016-Mar-25 03:00N 50°09' W 127°54'0 0.0 8.5
2016-Mar-24 14:00N 50°09' W 127°54'0 0.0 8.5
2016-Mar-24 02:00N 50°09' W 127°53'0 0.1 8.6
2016-Mar-23 20:00N 50°09' W 127°54'0 0.2 9.6
2016-Mar-23 17:00N 50°09' W 127°53'0 0.2 8.6
2016-Mar-23 16:00N 50°09' W 127°53'0 0.1 8.4
2016-Mar-23 15:00N 50°09' W 127°53'0 0.1 8.2
2016-Mar-23 14:00N 50°09' W 127°53'0 0.0 8.2
2016-Mar-23 12:00N 50°09' W 127°53'0 0.0 8.1
2016-Mar-23 04:00N 50°09' W 127°53'0 0.1 8.9
2016-Mar-23 02:00N 50°09' W 127°53'0 0.1 9.2
2016-Mar-22 23:00N 50°09' W 127°54'0 0.1 9.4
2016-Mar-22 19:00N 50°09' W 127°53'0 0.0 9.6
2016-Mar-22 17:00N 50°09' W 127°53'0 0.0 8.6
2016-Mar-22 15:00N 50°09' W 127°53'0 0.1 8.4
2016-Mar-22 14:00N 50°09' W 127°53'0 0.1 8.3
2016-Mar-22 13:00N 50°09' W 127°53'0 0.1 8.5
2016-Mar-22 12:00N 50°09' W 127°53'0 0.0 8.6
2016-Mar-22 11:00N 50°09' W 127°53'0 0.1 8.8
2016-Mar-22 10:00N 50°09' W 127°53'0 0.0 9.2
2016-Mar-22 03:00N 50°09' W 127°53'0 0.0 8.9
2016-Mar-22 01:00N 50°09' W 127°53'0 0.0 9.0
2016-Mar-21 23:00N 50°09' W 127°53'0 0.0 9.0
2016-Mar-21 19:00N 50°09' W 127°53'0 0.0 9.5
2016-Mar-21 15:00N 50°09' W 127°53'0 0.1 7.9
2016-Mar-21 14:00N 50°09' W 127°53'0 0.1 8.2
2016-Mar-21 11:00N 50°09' W 127°54'0 0.0 8.9
2016-Mar-21 05:00N 50°09' W 127°53'0 0.2 9.0
2016-Mar-21 04:00N 50°09' W 127°53'0 0.0 9.0
2016-Mar-21 03:00N 50°09' W 127°53'0 0.0 9.2
2016-Mar-21 02:00N 50°09' W 127°53'0 0.0 9.1
2016-Mar-20 23:00N 50°09' W 127°53'0 0.0 8.7
2016-Mar-20 16:00N 50°09' W 127°53'0 0.0 8.7
2016-Mar-20 14:00N 50°09' W 127°53'0 0.0 8.9
2016-Mar-20 13:00N 50°09' W 127°53'0 0.1 9.0
2016-Mar-20 12:00N 50°09' W 127°53'0 0.1 8.9
2016-Mar-20 11:00N 50°09' W 127°53'0 0.0 9.0
2016-Mar-20 10:00N 50°09' W 127°53'1 0.3 9.0
2016-Mar-20 06:00N 50°09' W 127°52'0 0.0 9.1
2016-Mar-20 05:00N 50°09' W 127°52'1 0.6 8.8
2016-Mar-20 03:00N 50°09' W 127°53'0 0.0 8.7
2016-Mar-19 23:00N 50°09' W 127°53'0 0.1 9.1
2016-Mar-19 18:00N 50°09' W 127°53'0 0.0 9.6
2016-Mar-19 16:00N 50°09' W 127°53'0 0.1 9.6
2016-Mar-19 14:00N 50°09' W 127°53'0 0.3 8.9
2016-Mar-19 13:00N 50°09' W 127°53'0 0.1 9.0
2016-Mar-19 11:00N 50°09' W 127°53'0 0.0 8.7
2016-Mar-19 10:00N 50°09' W 127°53'0 0.2 8.3
2016-Mar-19 07:00N 50°09' W 127°54'0 0.0 9.1
2016-Mar-19 05:00N 50°09' W 127°54'0 0.2 8.1
2016-Mar-19 03:00N 50°09' W 127°53'0 0.0 7.4
2016-Mar-19 00:00N 50°09' W 127°53'1 0.2 7.6
2016-Mar-18 21:00N 50°09' W 127°53'1 0.6 7.3
2016-Mar-18 20:00N 50°09' W 127°53'0 0.0 7.4
2016-Mar-18 16:00N 50°09' W 127°53'0 0.1 5.9
2016-Mar-18 14:00N 50°09' W 127°53'1 0.2 4.4
2016-Mar-18 11:00N 50°09' W 127°54'0 0.1 4.7
2016-Mar-18 05:00N 50°09' W 127°53'0 0.5 5.3
2016-Mar-18 04:00N 50°09' W 127°53'0 0.1 5.4
2016-Mar-18 02:00N 50°09' W 127°53'0 0.1 5.9
2016-Mar-17 20:00N 50°09' W 127°53'0 0.1 6.3
2016-Mar-17 17:00N 50°09' W 127°53'0 0.0 8.5
2016-Mar-17 16:00N 50°09' W 127°53'0 0.1 9.3
2016-Mar-17 14:00N 50°09' W 127°53'0 0.1 8.9
2016-Mar-17 12:00N 50°09' W 127°53'1 1.0 3.8
2016-Mar-17 11:00N 50°09' W 127°54'0 0.0 4.0
2016-Mar-17 10:00N 50°09' W 127°54'0 0.0 4.3
2016-Mar-17 06:00N 50°09' W 127°54'0 0.2 7.8
2016-Mar-17 04:00N 50°09' W 127°54'1 0.6 9.6
2016-Mar-17 03:00N 50°09' W 127°53'0 0.3 9.7
2016-Mar-17 02:00N 50°09' W 127°53'0 0.1 9.7
2016-Mar-17 01:00N 50°09' W 127°53'0 0.1 9.8
2016-Mar-17 00:00N 50°09' W 127°53'1 0.8 9.8
2016-Mar-16 23:00N 50°10' W 127°53'0 0.1 10.0
2016-Mar-16 21:00N 50°10' W 127°54'0 0.3 10.0
2016-Mar-16 20:00N 50°10' W 127°53'0 0.0 10.0
2016-Mar-16 19:00N 50°10' W 127°53'0 0.0 9.8
2016-Mar-16 18:00N 50°10' W 127°53'1 0.2 9.6
2016-Mar-16 15:00N 50°11' W 127°53'1 0.6 9.6
2016-Mar-16 14:00N 50°11' W 127°53'0 0.1 9.6
2016-Mar-16 13:00N 50°12' W 127°53'1 0.9 9.6
2016-Mar-16 12:00N 50°12' W 127°55'0 0.0 9.5
2016-Mar-16 11:00N 50°12' W 127°55'1 1.4 9.7
2016-Mar-16 10:00N 50°13' W 127°55'2 0.4 9.7
2016-Mar-16 05:00N 50°15' W 127°56'0 0.5 9.8
2016-Mar-16 04:00N 50°15' W 127°56'2 1.5 9.8
2016-Mar-16 03:00N 50°16' W 127°58'2 1.7 9.9
2016-Mar-16 02:00N 50°17' W 127°60'1 1.4 9.9
2016-Mar-16 01:00N 50°17' W 128°02'   9.9

Dump ship's entire track history